Time;durP1;ratioP1;P1;durP2;ratioP2;P2;SDS_P1;SDS_P2;PMS_P1;PMS_P2;Temp;Humidity;BMP_temperature;BMP_pressure;BME280_temperature;BME280_humidity;BME280_pressure;Samples;Min_cycle;Max_cycle;Signal;HPM_P1;HPM_P2
2022/07/07 00:01:08;;;;;;;13.80;7.35;;;;;;;13.29;63.27;101644.69;4977408;28;20045;-80
2022/07/07 00:03:34;;;;;;;13.00;6.15;;;;;;;13.38;62.98;101644.31;5014001;28;20049;-78
2022/07/07 00:05:59;;;;;;;10.52;5.55;;;;;;;13.24;63.16;101641.41;5000041;28;20040;-78
2022/07/07 00:08:25;;;;;;;7.05;5.68;;;;;;;13.15;63.98;101647.00;5032250;28;20551;-79
2022/07/07 00:10:50;;;;;;;6.30;5.43;;;;;;;13.45;62.88;101650.19;4994828;28;20053;-80
2022/07/07 00:13:16;;;;;;;8.18;5.03;;;;;;;13.49;62.55;101636.88;5034602;28;20042;-79
2022/07/07 00:15:45;;;;;;;9.93;4.60;;;;;;;13.24;63.62;101630.91;5001230;28;20041;-78
2022/07/07 00:18:11;;;;;;;9.95;5.00;;;;;;;13.29;63.24;101628.94;5018029;28;20033;-78
2022/07/07 00:20:37;;;;;;;8.38;3.97;;;;;;;13.55;62.90;101627.91;5014851;28;20041;-79
2022/07/07 00:23:03;;;;;;;6.93;4.28;;;;;;;13.19;63.50;101622.38;5017369;28;20063;-80
2022/07/07 00:25:28;;;;;;;8.20;4.00;;;;;;;13.56;62.46;101626.13;4999219;28;20442;-79
2022/07/07 00:27:54;;;;;;;4.45;3.50;;;;;;;13.65;62.29;101616.16;5016715;28;20045;-78
2022/07/07 00:30:20;;;;;;;6.80;3.40;;;;;;;13.69;62.03;101611.59;5002828;28;20048;-77
2022/07/07 00:32:45;;;;;;;4.40;3.28;;;;;;;13.39;62.71;101603.19;5017139;28;20030;-79
2022/07/07 00:35:11;;;;;;;13.63;3.72;;;;;;;13.44;62.61;101599.44;5009199;28;20123;-79
2022/07/07 00:37:37;;;;;;;4.05;2.60;;;;;;;13.37;62.41;101590.13;5012773;28;20212;-78
2022/07/07 00:40:03;;;;;;;7.97;2.97;;;;;;;13.72;61.97;101591.34;4997813;28;20447;-79
2022/07/07 00:42:29;;;;;;;8.25;2.78;;;;;;;13.74;61.89;101583.38;5009707;28;20025;-78
2022/07/07 00:44:54;;;;;;;7.43;2.90;;;;;;;13.73;61.62;101573.78;5014385;28;20041;-79
2022/07/07 00:47:20;;;;;;;5.05;2.08;;;;;;;13.54;62.32;101578.94;5013692;28;20018;-81
2022/07/07 00:49:46;;;;;;;7.78;2.10;;;;;;;13.31;63.23;101574.59;5015635;28;20587;-79
2022/07/07 00:52:12;;;;;;;4.68;1.90;;;;;;;13.40;63.15;101566.34;5001132;28;20083;-77
2022/07/07 00:54:38;;;;;;;5.95;2.42;;;;;;;13.47;62.97;101562.59;4998940;28;20041;-78
2022/07/07 00:57:05;;;;;;;6.38;2.30;;;;;;;13.47;62.82;101565.22;5015831;28;20029;-80
2022/07/07 00:59:33;;;;;;;3.95;2.28;;;;;;;13.43;63.18;101550.50;4998150;28;20049;-76
2022/07/07 01:01:58;;;;;;;3.78;2.55;;;;;;;13.33;63.24;101557.03;5011018;28;20164;-77
2022/07/07 01:04:24;;;;;;;2.90;2.20;;;;;;;13.82;61.86;101554.16;4995112;28;20422;-78
2022/07/07 01:06:50;;;;;;;4.40;2.08;;;;;;;13.38;63.38;101551.59;5015520;28;20880;-78
2022/07/07 01:09:16;;;;;;;5.38;2.55;;;;;;;13.41;63.09;101536.56;5016764;28;20095;-79
2022/07/07 01:11:55;;;;;;;3.35;2.17;;;;;;;13.60;62.59;101535.81;5001828;28;20045;-79
2022/07/07 01:14:22;;;;;;;6.78;2.25;;;;;;;13.02;64.32;101526.75;5013277;28;20553;-78
2022/07/07 01:16:49;;;;;;;4.05;2.05;;;;;;;13.17;64.04;101527.91;4996003;28;20038;-79
2022/07/07 01:19:15;;;;;;;8.70;3.20;;;;;;;13.53;62.71;101527.31;5013609;28;20140;-78
2022/07/07 01:21:47;;;;;;;7.57;2.90;;;;;;;13.84;61.72;101516.38;5016462;28;20044;-78
2022/07/07 01:24:12;;;;;;;10.30;4.25;;;;;;;13.63;62.14;101512.03;4990903;28;20057;-77
2022/07/07 01:26:39;;;;;;;8.20;3.40;;;;;;;13.43;63.02;101507.59;5013885;28;20029;-77
2022/07/07 01:29:05;;;;;;;5.82;2.40;;;;;;;13.01;64.38;101511.09;5013362;28;20111;-78
2022/07/07 01:31:30;;;;;;;8.45;3.45;;;;;;;13.52;63.14;101510.72;5012598;28;20030;-78
2022/07/07 01:33:56;;;;;;;6.70;2.70;;;;;;;12.86;65.15;101509.94;5011306;28;20036;-78
2022/07/07 01:36:21;;;;;;;5.68;2.65;;;;;;;13.11;64.21;101515.88;5017991;28;20127;-77
2022/07/07 01:38:47;;;;;;;3.35;1.10;;;;;;;13.48;63.10;101524.88;5015284;28;20049;-78
2022/07/07 01:41:12;;;;;;;2.40;0.98;;;;;;;13.71;62.36;101518.69;4995021;28;20119;-77
2022/07/07 01:43:38;;;;;;;7.78;1.05;;;;;;;13.75;62.12;101515.94;5011876;28;20040;-78
2022/07/07 01:46:03;;;;;;;1.92;0.70;;;;;;;13.50;63.01;101504.66;5012198;28;20048;-79
2022/07/07 01:48:29;;;;;;;2.80;0.50;;;;;;;13.22;63.55;101499.69;5015739;28;20033;-77
2022/07/07 01:50:54;;;;;;;3.72;0.50;;;;;;;13.38;63.24;101502.53;5002564;28;20064;-78
2022/07/07 01:53:20;;;;;;;1.63;0.40;;;;;;;13.50;62.63;101495.94;5004215;28;20737;-79
2022/07/07 01:55:45;;;;;;;3.17;0.40;;;;;;;13.54;62.72;101500.16;5013707;28;20045;-78
2022/07/07 01:58:11;;;;;;;2.72;0.68;;;;;;;13.59;61.83;101499.97;5014032;28;20176;-80
2022/07/07 02:00:37;;;;;;;6.00;0.60;;;;;;;13.59;62.61;101494.72;5014656;28;20049;-79
2022/07/07 02:03:02;;;;;;;5.13;1.15;;;;;;;13.44;62.89;101496.19;5019477;28;20033;-79
2022/07/07 02:05:28;;;;;;;4.60;0.60;;;;;;;13.65;62.23;101490.06;4985003;28;20146;-78
2022/07/07 02:07:53;;;;;;;2.05;0.90;;;;;;;13.65;61.65;101483.94;5014705;28;20462;-79
2022/07/07 02:13:04;;;;;;;3.88;0.52;;;;;;;13.42;62.79;101479.66;5018039;28;20037;-81
2022/07/07 02:15:31;;;;;;;4.28;0.40;;;;;;;13.66;62.39;101483.03;4994124;28;20128;-79
2022/07/07 02:17:57;;;;;;;7.75;0.57;;;;;;;13.50;62.54;101473.16;5019540;28;20198;-79
2022/07/07 02:20:22;;;;;;;3.45;0.73;;;;;;;13.70;62.05;101471.47;5001974;28;20494;-79
2022/07/07 02:22:48;;;;;;;5.60;1.20;;;;;;;13.80;61.74;101475.38;5034586;28;20037;-78
2022/07/07 02:25:13;;;;;;;1.83;0.73;;;;;;;13.51;62.59;101472.22;5017215;28;20052;-78
2022/07/07 02:27:39;;;;;;;6.25;0.73;;;;;;;13.71;61.89;101473.16;4997931;28;20071;-79
2022/07/07 02:30:06;;;;;;;7.22;0.70;;;;;;;13.76;61.89;101470.34;5013181;28;20144;-79
2022/07/07 02:32:32;;;;;;;3.35;0.82;;;;;;;13.45;62.42;101466.38;5019147;28;20057;-78
2022/07/07 02:34:58;;;;;;;2.72;1.10;;;;;;;13.57;62.29;101475.56;5017563;28;20073;-79
2022/07/07 02:37:25;;;;;;;3.47;0.50;;;;;;;13.43;62.87;101471.72;5017547;28;20047;-78
2022/07/07 02:39:51;;;;;;;10.40;1.05;;;;;;;13.61;62.17;101462.22;5002808;28;20111;-79
2022/07/07 02:42:17;;;;;;;5.25;1.08;;;;;;;13.66;62.34;101459.41;5019056;28;20029;-78
2022/07/07 02:44:42;;;;;;;5.50;1.42;;;;;;;13.75;61.76;101453.72;4995514;28;20044;-79
2022/07/07 02:47:08;;;;;;;5.88;0.65;;;;;;;13.89;61.20;101461.84;5024143;28;20091;-79
2022/07/07 02:49:34;;;;;;;4.82;1.48;;;;;;;13.96;60.96;101449.28;5014517;28;20045;-78
2022/07/07 02:51:59;;;;;;;6.65;1.00;;;;;;;14.09;60.90;101454.84;5017067;28;20056;-79
2022/07/07 02:54:25;;;;;;;4.43;0.88;;;;;;;13.93;61.16;101450.28;4998413;28;20044;-78
2022/07/07 02:56:50;;;;;;;7.03;0.70;;;;;;;14.03;61.10;101452.47;5002719;28;20037;-79
2022/07/07 02:59:16;;;;;;;5.45;0.98;;;;;;;13.98;61.20;101455.31;5004316;28;20064;-79
2022/07/07 03:01:41;;;;;;;4.72;1.23;;;;;;;13.59;62.37;101453.56;5014533;28;20041;-78
2022/07/07 03:04:07;;;;;;;5.20;0.93;;;;;;;13.28;63.36;101451.34;4999807;28;20038;-77
2022/07/07 03:06:32;;;;;;;1.10;0.50;;;;;;;13.70;61.75;101450.47;5000930;28;20029;-78
2022/07/07 03:08:58;;;;;;;4.07;0.93;;;;;;;13.67;61.59;101446.22;5014315;28;20116;-78
2022/07/07 03:11:23;;;;;;;3.10;0.65;;;;;;;13.67;61.62;101450.59;5017779;28;20044;-80
2022/07/07 03:13:49;;;;;;;5.72;0.82;;;;;;;13.29;62.63;101448.69;5012015;28;20028;-78
2022/07/07 03:16:14;;;;;;;3.30;0.57;;;;;;;13.74;61.61;101446.75;5011593;28;20115;-79
2022/07/07 03:18:39;;;;;;;4.65;0.60;;;;;;;13.71;61.60;101442.50;5000350;28;20577;-77
2022/07/07 03:21:05;;;;;;;1.63;0.30;;;;;;;13.69;61.40;101444.34;4959678;28;20272;-79
2022/07/07 03:23:31;;;;;;;7.00;0.60;;;;;;;13.77;61.19;101451.03;5035775;28;20036;-80
2022/07/07 03:25:56;;;;;;;2.35;0.38;;;;;;;13.77;60.91;101443.16;5016323;28;20120;-79
2022/07/07 03:28:22;;;;;;;8.85;0.85;;;;;;;13.65;61.32;101448.03;5018875;28;20543;-78
2022/07/07 03:30:47;;;;;;;6.43;0.57;;;;;;;13.87;60.49;101436.56;4999086;28;20507;-79
2022/07/07 03:33:12;;;;;;;3.08;0.68;;;;;;;13.69;61.25;101443.50;5013692;28;20044;-79
2022/07/07 03:35:39;;;;;;;6.03;0.50;;;;;;;13.58;61.72;101451.00;5001819;28;20103;-78
2022/07/07 03:38:05;;;;;;;2.72;0.30;;;;;;;13.72;61.05;101435.50;5013758;28;20034;-78
2022/07/07 03:40:31;;;;;;;3.65;0.85;;;;;;;13.57;61.33;101437.00;5000483;28;20052;-78
2022/07/07 03:42:56;;;;;;;3.28;0.38;;;;;;;13.59;61.56;101434.31;4998362;28;20083;-78
2022/07/07 03:45:22;;;;;;;8.00;0.75;;;;;;;13.45;62.01;101434.88;4997490;28;20049;-78
2022/07/07 03:47:50;;;;;;;6.63;0.43;;;;;;;13.56;61.52;101437.03;4999961;28;20075;-78
2022/07/07 03:50:15;;;;;;;3.35;0.57;;;;;;;13.71;61.01;101429.34;5003366;28;20477;-79
2022/07/07 03:52:41;;;;;;;4.07;0.45;;;;;;;13.60;61.37;101434.25;5000834;28;20037;-78
2022/07/07 03:55:10;;;;;;;4.75;0.93;;;;;;;13.46;61.66;101432.19;5000442;28;20126;-81
2022/07/07 03:57:36;;;;;;;5.18;0.52;;;;;;;13.51;61.89;101439.84;4995651;28;20113;-78
2022/07/07 04:00:02;;;;;;;6.28;0.52;;;;;;;13.27;62.30;101436.50;4988056;28;20259;-76
2022/07/07 04:02:33;;;;;;;3.42;0.47;;;;;;;13.62;61.42;101436.81;5025968;28;20048;-78
2022/07/07 04:04:59;;;;;;;3.75;0.40;;;;;;;13.45;61.60;101425.25;5016824;28;20042;-81
2022/07/07 04:07:24;;;;;;;1.40;0.32;;;;;;;13.33;62.13;101428.38;5012517;28;20029;-80
2022/07/07 04:09:50;;;;;;;1.48;0.25;;;;;;;13.41;61.70;101428.91;5015055;28;20165;-78
2022/07/07 04:12:16;;;;;;;1.70;0.30;;;;;;;13.32;61.90;101427.53;5017629;28;20053;-79
2022/07/07 04:14:41;;;;;;;2.10;0.60;;;;;;;13.22;62.37;101433.25;5010705;28;20177;-80
2022/07/07 04:17:06;;;;;;;1.48;0.40;;;;;;;13.17;62.75;101425.56;5001766;28;20025;-76
2022/07/07 04:19:32;;;;;;;4.40;0.40;;;;;;;13.31;62.35;101424.97;5019384;28;20101;-79
2022/07/07 04:21:58;;;;;;;1.58;0.32;;;;;;;13.31;62.49;101420.56;5001033;28;20037;-78
2022/07/07 04:24:23;;;;;;;3.33;0.55;;;;;;;13.35;62.30;101428.31;5008474;28;20072;-78
2022/07/07 04:26:49;;;;;;;3.63;0.55;;;;;;;13.00;62.81;101434.13;4987870;28;20057;-78
2022/07/07 04:29:17;;;;;;;3.38;0.22;;;;;;;13.27;62.24;101432.13;5010504;28;20034;-77
2022/07/07 04:31:45;;;;;;;5.72;0.45;;;;;;;13.34;61.91;101427.47;4996747;28;20725;-80
2022/07/07 04:34:12;;;;;;;0.98;0.20;;;;;;;13.01;62.75;101425.34;5000416;28;20037;-76
2022/07/07 04:36:39;;;;;;;1.65;0.30;;;;;;;13.28;61.95;101427.72;5019572;28;20693;-77
2022/07/07 04:39:05;;;;;;;2.63;0.40;;;;;;;13.34;61.66;101432.72;5014814;28;20033;-79
2022/07/07 04:41:30;;;;;;;2.60;0.35;;;;;;;13.29;62.09;101434.69;5019321;28;20112;-77
2022/07/07 04:43:56;;;;;;;9.27;0.30;;;;;;;13.31;62.15;101428.44;4984220;28;20472;-78
2022/07/07 04:46:21;;;;;;;2.60;0.35;;;;;;;13.63;61.60;101428.00;5001823;28;20044;-79
2022/07/07 04:48:47;;;;;;;5.05;0.70;;;;;;;13.68;61.29;101423.41;5010885;28;20029;-79
2022/07/07 04:51:12;;;;;;;3.53;0.40;;;;;;;13.86;60.82;101434.88;4996967;28;20133;-76
2022/07/07 04:53:38;;;;;;;5.43;0.10;;;;;;;14.00;60.11;101431.59;5001790;28;20121;-78
2022/07/07 04:56:05;;;;;;;8.88;0.60;;;;;;;13.63;61.01;101439.38;5010501;28;20046;-78
2022/07/07 04:58:30;;;;;;;4.38;0.30;;;;;;;13.80;60.93;101443.88;4997331;28;20040;-78
2022/07/07 05:00:56;;;;;;;0.73;0.10;;;;;;;13.68;60.84;101441.78;5015223;28;20045;-77
2022/07/07 05:03:22;;;;;;;4.70;0.25;;;;;;;13.73;60.97;101440.66;5001973;28;20029;-79
2022/07/07 05:05:47;;;;;;;2.20;0.25;;;;;;;13.62;62.04;101447.31;4999886;28;20128;-78
2022/07/07 05:08:13;;;;;;;5.97;0.52;;;;;;;13.98;61.11;101444.81;5017142;28;20400;-81
2022/07/07 05:10:38;;;;;;;4.53;0.35;;;;;;;14.22;59.86;101453.34;4972567;28;20156;-77
2022/07/07 05:13:04;;;;;;;1.80;0.20;;;;;;;14.15;59.86;101457.19;5026944;28;20049;-78
2022/07/07 05:15:29;;;;;;;5.25;0.47;;;;;;;14.07;59.63;101454.06;5032556;28;20038;-78
2022/07/07 05:17:55;;;;;;;9.82;0.63;;;;;;;13.97;60.01;101452.78;5013310;28;20041;-78
2022/07/07 05:20:21;;;;;;;2.17;0.32;;;;;;;13.86;60.07;101456.72;4993988;28;20049;-79
2022/07/07 05:22:46;;;;;;;6.05;1.45;;;;;;;14.04;59.54;101460.31;5015833;28;20040;-79
2022/07/07 05:25:11;;;;;;;9.32;0.73;;;;;;;13.90;60.28;101471.44;5010911;28;20034;-77
2022/07/07 05:27:37;;;;;;;12.32;0.95;;;;;;;13.92;60.10;101466.97;5000139;28;20064;-77
2022/07/07 05:30:05;;;;;;;8.43;1.05;;;;;;;14.17;59.20;101472.91;4999595;28;20052;-79
2022/07/07 05:32:30;;;;;;;6.22;0.40;;;;;;;14.76;57.78;101480.63;4996579;28;20037;-76
2022/07/07 05:34:56;;;;;;;9.65;1.55;;;;;;;14.96;57.59;101487.56;4999346;28;20040;-78
2022/07/07 05:37:21;;;;;;;6.15;0.40;;;;;;;14.50;58.51;101489.78;5014120;28;20037;-76
2022/07/07 05:39:47;;;;;;;4.32;0.40;;;;;;;14.36;59.31;101494.78;4982158;28;20100;-79
2022/07/07 05:42:13;;;;;;;4.15;0.40;;;;;;;14.99;58.42;101502.34;5002120;28;20030;-78
2022/07/07 05:44:39;;;;;;;6.25;0.32;;;;;;;15.00;57.89;101504.06;5010062;28;20048;-77
2022/07/07 05:47:05;;;;;;;9.02;1.73;;;;;;;14.65;58.17;101509.22;5026151;28;20033;-79
2022/07/07 05:49:31;;;;;;;4.78;0.32;;;;;;;14.59;58.93;101514.81;4972988;28;20174;-77
2022/07/07 05:51:56;;;;;;;3.30;0.30;;;;;;;14.52;59.30;101529.13;4997340;28;20040;-77
2022/07/07 05:54:22;;;;;;;4.22;0.30;;;;;;;14.07;59.95;101538.16;5012957;28;20117;-79
2022/07/07 05:56:47;;;;;;;1.08;0.35;;;;;;;13.41;61.38;101549.69;5015680;28;20057;-76
2022/07/07 05:59:13;;;;;;;0.68;0.10;;;;;;;13.44;61.34;101546.94;5009262;28;20048;-77
2022/07/07 06:01:38;;;;;;;4.15;0.30;;;;;;;13.57;60.59;101559.59;5009899;28;20163;-78
2022/07/07 06:04:04;;;;;;;0.93;0.17;;;;;;;13.56;60.56;101548.19;5015413;28;20120;-76
2022/07/07 06:06:30;;;;;;;3.10;0.40;;;;;;;13.83;60.17;101572.50;4997880;28;20367;-78
2022/07/07 06:08:55;;;;;;;3.53;0.30;;;;;;;13.82;59.92;101564.66;5009389;28;20570;-77
2022/07/07 06:11:21;;;;;;;1.95;0.30;;;;;;;13.72;60.26;101577.34;5017885;28;20067;-76
2022/07/07 06:13:46;;;;;;;4.32;0.30;;;;;;;13.73;60.10;101572.00;5010012;28;20026;-77
2022/07/07 06:16:12;;;;;;;6.93;0.50;;;;;;;13.59;60.72;101578.78;5002756;28;20042;-76
2022/07/07 06:18:37;;;;;;;6.07;0.75;;;;;;;13.40;60.83;101578.63;5014727;28;20079;-79
2022/07/07 06:21:03;;;;;;;7.05;0.50;;;;;;;13.17;61.72;101593.53;5007902;28;20115;-76
2022/07/07 06:23:28;;;;;;;3.88;0.52;;;;;;;13.21;61.56;101599.53;5008688;28;20658;-76
2022/07/07 06:25:54;;;;;;;8.13;0.68;;;;;;;12.98;62.34;101598.66;5005148;28;20045;-78
2022/07/07 06:28:19;;;;;;;5.82;1.08;;;;;;;12.82;62.39;101608.03;5016088;28;20464;-78
2022/07/07 06:30:45;;;;;;;5.28;0.93;;;;;;;12.39;62.53;101612.19;4971283;28;20135;-77
2022/07/07 06:33:11;;;;;;;1.25;0.40;;;;;;;12.55;62.33;101615.97;5016319;28;20103;-77
2022/07/07 06:35:36;;;;;;;3.42;0.50;;;;;;;12.66;61.91;101629.53;5018572;28;20045;-77
2022/07/07 06:38:01;;;;;;;8.10;0.82;;;;;;;12.88;61.25;101634.03;5013919;28;20082;-75
2022/07/07 06:40:27;;;;;;;9.63;1.00;;;;;;;13.08;60.88;101631.50;5017762;28;20503;-77
2022/07/07 06:42:52;;;;;;;5.45;0.73;;;;;;;13.01;60.03;101635.28;5000350;28;20424;-78
2022/07/07 06:45:25;;;;;;;6.45;0.95;;;;;;;13.31;59.26;101648.13;5013607;28;20064;-80
2022/07/07 06:47:50;;;;;;;5.75;0.80;;;;;;;13.57;58.42;101644.50;5003530;28;20068;-79
2022/07/07 06:50:17;;;;;;;8.70;0.90;;;;;;;13.67;58.24;101644.97;5000891;28;20101;-76
2022/07/07 06:52:42;;;;;;;6.60;0.50;;;;;;;13.62;57.18;101652.19;4997757;28;20526;-75
2022/07/07 06:55:08;;;;;;;9.80;1.27;;;;;;;13.30;56.99;101668.28;5016048;28;20034;-77
2022/07/07 06:57:33;;;;;;;7.78;0.57;;;;;;;13.39;57.24;101651.31;5002993;28;20510;-77
2022/07/07 06:59:59;;;;;;;7.63;1.17;;;;;;;14.24;54.99;101656.59;4996895;28;20132;-77
2022/07/07 07:02:25;;;;;;;12.20;0.70;;;;;;;14.52;54.60;101660.66;4996162;28;20021;-77
2022/07/07 07:04:51;;;;;;;8.93;0.85;;;;;;;14.74;53.29;101664.03;5014054;28;20136;-77
2022/07/07 07:07:17;;;;;;;11.70;0.93;;;;;;;14.81;53.44;101666.41;5035308;28;20407;-76
2022/07/07 07:09:43;;;;;;;7.03;0.85;;;;;;;14.54;53.91;101677.22;4973315;28;20124;-78
2022/07/07 07:12:09;;;;;;;10.02;1.10;;;;;;;14.22;54.83;101671.56;5019007;28;20694;-76
2022/07/07 07:14:34;;;;;;;7.72;1.33;;;;;;;13.75;55.27;101663.91;5011881;28;20358;-78
2022/07/07 07:17:00;;;;;;;7.32;1.23;;;;;;;13.75;55.85;101676.19;5014645;28;20140;-76
2022/07/07 07:19:25;;;;;;;12.07;1.42;;;;;;;13.78;55.74;101691.81;4987507;28;20671;-76
2022/07/07 07:21:51;;;;;;;13.98;2.10;;;;;;;13.41;56.54;101688.00;5017925;28;20507;-75
2022/07/07 07:24:16;;;;;;;9.23;1.10;;;;;;;13.64;55.88;101692.38;5013150;28;20120;-76
2022/07/07 07:26:42;;;;;;;4.63;0.88;;;;;;;13.20;56.35;101692.31;4999339;28;20095;-76
2022/07/07 07:29:07;;;;;;;10.27;0.93;;;;;;;14.02;55.01;101697.84;5030933;28;20093;-77
2022/07/07 07:31:33;;;;;;;9.75;1.10;;;;;;;14.11;54.68;101695.69;5014606;28;20052;-77
2022/07/07 07:33:59;;;;;;;6.15;0.85;;;;;;;14.20;54.55;101699.69;5009746;28;20108;-76
2022/07/07 07:36:24;;;;;;;9.15;1.05;;;;;;;14.36;53.97;101703.38;4996190;28;20030;-78
2022/07/07 07:38:50;;;;;;;7.68;1.13;;;;;;;14.13;53.83;101703.50;5024620;28;20710;-76
2022/07/07 07:41:18;;;;;;;6.53;0.80;;;;;;;14.21;52.58;101706.69;4966801;28;20045;-75
2022/07/07 07:43:43;;;;;;;7.25;0.85;;;;;;;15.02;51.09;101712.81;5010264;28;20085;-76
2022/07/07 07:46:09;;;;;;;4.97;0.43;;;;;;;15.20;50.33;101715.53;5015077;28;21041;-79
2022/07/07 07:48:34;;;;;;;7.93;0.88;;;;;;;15.21;50.27;101710.16;5010400;28;20049;-78
2022/07/07 07:51:00;;;;;;;3.88;0.32;;;;;;;15.29;49.54;101715.13;4998154;28;20108;-79
2022/07/07 07:53:25;;;;;;;5.97;0.50;;;;;;;16.53;46.64;101708.16;5006381;28;20037;-78
2022/07/07 07:55:51;;;;;;;4.07;0.80;;;;;;;17.72;42.72;101721.16;4975754;28;20040;-76
2022/07/07 07:58:16;;;;;;;5.00;0.60;;;;;;;17.72;42.22;101714.06;5004206;28;20534;-78
2022/07/07 08:00:42;;;;;;;3.05;0.40;;;;;;;17.81;43.45;101725.91;5006256;28;20148;-77
2022/07/07 08:03:08;;;;;;;3.25;0.45;;;;;;;18.21;42.10;101743.00;4998741;28;20041;-75
2022/07/07 08:05:33;;;;;;;6.18;1.52;;;;;;;17.82;42.77;101732.88;4993295;28;20037;-76
2022/07/07 08:07:59;;;;;;;3.30;0.55;;;;;;;17.22;43.92;101731.78;5010410;28;20041;-77
2022/07/07 08:10:24;;;;;;;2.30;0.47;;;;;;;17.03;44.40;101739.00;4988244;28;20115;-75
2022/07/07 08:12:50;;;;;;;4.20;0.50;;;;;;;17.26;43.81;101731.63;5014364;28;20064;-78
2022/07/07 08:15:16;;;;;;;6.90;0.82;;;;;;;16.91;44.33;101742.28;4999947;28;20326;-77
2022/07/07 08:17:42;;;;;;;10.43;0.80;;;;;;;16.14;46.53;101754.97;5010973;28;20033;-77
2022/07/07 08:20:08;;;;;;;8.68;0.35;;;;;;;16.14;46.71;101756.75;4997479;28;20181;-76
2022/07/07 08:22:34;;;;;;;9.35;0.52;;;;;;;15.90;47.76;101759.63;5022092;28;20116;-79
2022/07/07 08:24:59;;;;;;;6.28;0.80;;;;;;;16.21;47.37;101766.06;4990931;28;20595;-75
2022/07/07 08:27:25;;;;;;;7.03;0.73;;;;;;;17.32;44.59;101757.69;4992805;28;20067;-78
2022/07/07 08:29:50;;;;;;;3.70;0.52;;;;;;;17.59;43.46;101761.47;5012534;28;20069;-77
2022/07/07 08:32:16;;;;;;;6.60;0.68;;;;;;;18.36;41.08;101757.09;5013439;28;20151;-77
2022/07/07 08:34:42;;;;;;;5.70;0.60;;;;;;;17.79;41.34;101767.44;5010610;28;20103;-79
2022/07/07 08:37:08;;;;;;;5.53;1.58;;;;;;;16.73;43.73;101766.06;4996718;28;20403;-76
2022/07/07 08:39:34;;;;;;;2.35;0.20;;;;;;;15.89;47.00;101768.47;5012249;28;20030;-77
2022/07/07 08:41:59;;;;;;;4.00;0.28;;;;;;;15.66;48.11;101777.50;5006404;28;20408;-76
2022/07/07 08:44:25;;;;;;;2.78;0.40;;;;;;;15.90;48.10;101774.59;4994166;28;20123;-77
2022/07/07 08:46:51;;;;;;;4.93;0.60;;;;;;;16.28;48.02;101783.28;5011734;28;20053;-75
2022/07/07 08:49:17;;;;;;;5.47;0.20;;;;;;;16.64;46.64;101779.72;4972911;28;20041;-75
2022/07/07 08:51:44;;;;;;;4.10;0.73;;;;;;;17.30;44.48;101783.34;5023861;28;20099;-75
2022/07/07 08:54:14;;;;;;;2.38;0.25;;;;;;;17.68;44.90;101783.06;5022278;28;20748;-75
2022/07/07 08:56:41;;;;;;;1.45;0.40;;;;;;;17.48;43.95;101779.72;5031307;28;20063;-76
2022/07/07 08:59:08;;;;;;;6.22;0.20;;;;;;;16.81;46.19;101798.22;5023833;28;20029;-76
2022/07/07 09:01:34;;;;;;;2.45;0.30;;;;;;;15.57;48.99;101805.13;5010609;28;20029;-76
2022/07/07 09:04:01;;;;;;;2.88;0.32;;;;;;;15.40;49.27;101807.69;5014161;28;20057;-76
2022/07/07 09:06:26;;;;;;;5.15;0.30;;;;;;;16.00;49.07;101803.13;5000464;28;20570;-75
2022/07/07 09:08:52;;;;;;;0.95;0.10;;;;;;;15.93;47.66;101798.16;5001107;28;20036;-76
2022/07/07 09:11:29;;;;;;;4.25;0.20;;;;;;;15.92;47.38;101815.78;5014190;28;20213;-76
2022/07/07 09:14:10;;;;;;;2.47;0.20;;;;;;;15.80;48.36;101811.94;5012642;28;20048;-76
2022/07/07 09:16:37;;;;;;;1.80;0.10;;;;;;;15.39;49.77;101813.84;5017306;28;20325;-78
2022/07/07 09:19:06;;;;;;;2.83;0.20;;;;;;;15.91;48.78;101821.97;4999530;28;20593;-78
2022/07/07 09:21:33;;;;;;;5.75;0.47;;;;;;;15.85;49.87;101829.34;4997966;28;20116;-78
2022/07/07 09:24:05;;;;;;;2.45;0.30;;;;;;;15.74;50.19;101843.84;4992974;28;20114;-76
2022/07/07 09:26:38;;;;;;;1.75;0.10;;;;;;;14.84;53.40;101861.03;5019037;28;20029;-76
2022/07/07 09:29:08;;;;;;;3.63;0.30;;;;;;;14.27;55.97;101861.53;4995169;28;20029;-75
2022/07/07 09:31:55;;;;;;;4.87;0.50;;;;;;;14.01;56.37;101845.94;5014552;28;20026;-74
2022/07/07 09:34:23;;;;;;;3.63;0.40;;;;;;;14.48;56.40;101861.66;4999301;28;20092;-76
2022/07/07 09:39:43;;;;;;;1.98;0.20;;;;;;;15.75;52.68;101855.25;5025658;28;20545;-76
2022/07/07 09:42:22;;;;;;;2.65;0.68;;;;;;;15.62;53.04;101860.25;5016193;28;20034;-78
2022/07/07 09:44:51;;;;;;;6.35;0.30;;;;;;;15.42;53.55;101866.41;5012218;28;20048;-78
2022/07/07 09:47:19;;;;;;;3.42;0.40;;;;;;;15.38;53.25;101876.22;5013178;28;20128;-76
2022/07/07 09:49:58;;;;;;;3.90;0.30;;;;;;;16.03;50.86;101875.94;5030361;28;20045;-75
2022/07/07 09:52:23;;;;;;;0.57;0.25;;;;;;;16.26;49.98;101872.19;5028168;28;20142;-76
2022/07/07 09:54:49;;;;;;;4.95;0.50;;;;;;;15.87;50.77;101902.13;5015426;28;20613;-76
2022/07/07 09:57:19;;;;;;;2.35;0.10;;;;;;;14.96;52.42;101897.34;5018385;28;20106;-77
2022/07/07 09:59:45;;;;;;;3.80;0.10;;;;;;;14.42;53.83;101912.72;4978294;28;20041;-77
2022/07/07 10:02:26;;;;;;;2.65;0.63;;;;;;;14.65;53.80;101906.50;5028375;28;20029;-76
2022/07/07 10:04:54;;;;;;;2.78;0.60;;;;;;;14.47;54.88;101925.69;4994994;28;20080;-76
2022/07/07 10:07:23;;;;;;;4.32;0.52;;;;;;;13.61;56.61;101931.56;4998433;28;20048;-77
2022/07/07 10:09:57;;;;;;;9.23;1.13;;;;;;;13.78;56.12;101925.66;5017634;28;20141;-75
2022/07/07 10:12:25;;;;;;;4.00;0.73;;;;;;;13.47;57.09;101943.38;5020353;28;20557;-77
2022/07/07 10:14:58;;;;;;;6.88;0.40;;;;;;;13.55;56.37;101948.34;4986512;28;20045;-76
2022/07/07 10:17:25;;;;;;;2.90;0.25;;;;;;;14.21;55.11;101950.31;5015758;28;20037;-76
2022/07/07 10:19:51;;;;;;;3.85;0.68;;;;;;;13.88;54.82;101948.06;4974361;28;20068;-77
2022/07/07 10:22:18;;;;;;;4.72;0.40;;;;;;;14.82;53.14;101955.00;5005158;28;20527;-76
2022/07/07 10:24:44;;;;;;;8.32;0.60;;;;;;;15.19;51.74;101949.03;4997218;28;20248;-75
2022/07/07 10:27:21;;;;;;;7.47;0.60;;;;;;;15.26;51.73;101960.19;4999880;28;20037;-77
2022/07/07 10:29:52;;;;;;;9.10;0.88;;;;;;;14.50;52.88;101973.78;5011693;28;20041;-77
2022/07/07 10:32:37;;;;;;;9.50;1.10;;;;;;;13.84;53.13;101970.97;5014536;28;20045;-76
2022/07/07 10:35:08;;;;;;;11.05;1.20;;;;;;;14.50;51.57;101968.50;5015799;28;20042;-77
2022/07/07 10:37:44;;;;;;;10.53;1.10;;;;;;;14.57;51.02;101979.66;5019910;28;20125;-78
2022/07/07 10:40:30;;;;;;;12.93;0.80;;;;;;;14.47;51.12;101983.53;5014117;28;21136;-78
2022/07/07 10:43:33;;;;;;;5.18;0.88;;;;;;;14.09;51.33;101994.56;5026567;28;20037;-75
2022/07/07 10:46:01;;;;;;;7.35;0.85;;;;;;;14.03;51.52;101991.31;5011149;28;20052;-78
2022/07/07 10:48:43;;;;;;;8.07;1.70;;;;;;;13.97;50.61;101999.44;4999280;28;20037;-76
2022/07/07 10:51:22;;;;;;;;;;;;;;;14.08;50.34;102003.38;5012456;28;20176;-79
2022/07/07 10:54:10;;;;;;;10.50;1.25;;;;;;;14.39;49.97;102006.63;5027494;28;20392;-77
2022/07/07 10:56:51;;;;;;;4.88;0.77;;;;;;;14.64;48.18;102011.84;5032594;28;20459;-77
2022/07/07 10:59:21;;;;;;;4.68;0.60;;;;;;;14.91;47.08;102021.25;5013793;28;20100;-77
2022/07/07 11:02:02;;;;;;;12.65;0.90;;;;;;;14.47;45.54;102017.75;5016849;28;20044;-75
2022/07/07 11:04:43;;;;;;;8.10;0.98;;;;;;;14.96;44.68;102018.44;4998784;28;20062;-76
2022/07/07 11:07:17;;;;;;;12.93;2.47;;;;;;;15.09;43.27;102027.56;4950096;28;1414607;-76
2022/07/07 11:09:57;;;;;;;7.63;0.90;;;;;;;15.05;44.10;102030.38;4993432;28;20128;-76
2022/07/07 11:12:37;;;;;;;5.15;0.30;;;;;;;15.11;43.01;102038.88;5012015;28;20038;-77
2022/07/07 11:15:16;;;;;;;7.53;0.82;;;;;;;15.27;41.64;102044.41;5016705;28;20038;-78
2022/07/07 11:17:46;;;;;;;11.75;1.20;;;;;;;15.55;41.52;102051.13;5009827;28;20033;-77
2022/07/07 11:20:20;;;;;;;9.90;1.67;;;;;;;16.08;40.80;102042.72;5014719;28;20045;-76
2022/07/07 11:23:05;;;;;;;16.40;1.17;;;;;;;15.30;41.36;102061.84;4993364;28;20507;-75
2022/07/07 11:25:33;;;;;;;9.05;1.17;;;;;;;14.92;42.07;102059.81;5014828;28;20041;-76
2022/07/07 11:27:59;;;;;;;8.05;0.77;;;;;;;15.31;42.48;102064.44;5008342;28;20061;-77
2022/07/07 11:30:25;;;;;;;13.00;1.80;;;;;;;14.59;43.69;102055.88;4979098;28;20780;-76